sensor_id;sensor_type;location;lat;lon;timestamp;pressure;altitude;pressure_sealevel;temperature;humidity
63019;BME280;49105;46.046;10.760;2023-07-02T00:00:53;95049.66;;;20.56;68.39
63019;BME280;49105;46.046;10.760;2023-07-02T00:03:23;95051.75;;;20.47;68.59
63019;BME280;49105;46.046;10.760;2023-07-02T00:05:56;95048.38;;;20.34;69.19
63019;BME280;49105;46.046;10.760;2023-07-02T00:08:31;95039.28;;;20.23;69.54
63019;BME280;49105;46.046;10.760;2023-07-02T00:10:57;95044.16;;;20.17;69.68
63019;BME280;49105;46.046;10.760;2023-07-02T00:13:32;95047.97;;;20.16;69.77
63019;BME280;49105;46.046;10.760;2023-07-02T00:16:16;95049.34;;;20.10;69.91
63019;BME280;49105;46.046;10.760;2023-07-02T00:18:42;95049.34;;;20.10;69.98
63019;BME280;49105;46.046;10.760;2023-07-02T00:21:08;95050.22;;;20.14;69.73
63019;BME280;49105;46.046;10.760;2023-07-02T00:23:41;95046.41;;;20.15;69.50
63019;BME280;49105;46.046;10.760;2023-07-02T00:26:07;95043.38;;;20.17;69.57
63019;BME280;49105;46.046;10.760;2023-07-02T00:28:52;95045.19;;;20.13;69.72
63019;BME280;49105;46.046;10.760;2023-07-02T00:31:27;95047.09;;;20.12;69.79
63019;BME280;49105;46.046;10.760;2023-07-02T00:33:52;95046.25;;;20.08;69.80
63019;BME280;49105;46.046;10.760;2023-07-02T00:36:18;95043.56;;;20.08;69.65
63019;BME280;49105;46.046;10.760;2023-07-02T00:38:59;95040.41;;;20.06;69.62
63019;BME280;49105;46.046;10.760;2023-07-02T00:41:24;95048.41;;;20.02;69.63
63019;BME280;49105;46.046;10.760;2023-07-02T00:43:50;95032.97;;;19.99;69.69
63019;BME280;49105;46.046;10.760;2023-07-02T00:46:36;95042.94;;;19.99;69.59
63019;BME280;49105;46.046;10.760;2023-07-02T00:49:04;95048.84;;;19.89;69.83
63019;BME280;49105;46.046;10.760;2023-07-02T00:51:30;95050.97;;;19.83;70.09
63019;BME280;49105;46.046;10.760;2023-07-02T00:54:05;95050.28;;;19.86;69.91
63019;BME280;49105;46.046;10.760;2023-07-02T00:56:36;95044.16;;;19.86;69.75
63019;BME280;49105;46.046;10.760;2023-07-02T00:59:02;95041.09;;;19.87;69.72
63019;BME280;49105;46.046;10.760;2023-07-02T01:01:30;95038.88;;;19.89;69.82
63019;BME280;49105;46.046;10.760;2023-07-02T01:04:00;95043.38;;;19.85;69.82
63019;BME280;49105;46.046;10.760;2023-07-02T01:06:34;95042.91;;;19.83;69.75
63019;BME280;49105;46.046;10.760;2023-07-02T01:09:13;95047.41;;;19.79;69.64
63019;BME280;49105;46.046;10.760;2023-07-02T01:11:49;95045.34;;;19.72;69.91
63019;BME280;49105;46.046;10.760;2023-07-02T01:14:38;95048.47;;;19.74;69.59
63019;BME280;49105;46.046;10.760;2023-07-02T01:17:06;95046.47;;;19.71;69.68
63019;BME280;49105;46.046;10.760;2023-07-02T01:19:54;95042.94;;;19.67;69.65
63019;BME280;49105;46.046;10.760;2023-07-02T01:22:25;95045.06;;;19.62;69.83
63019;BME280;49105;46.046;10.760;2023-07-02T01:28:15;95040.16;;;19.64;69.59
63019;BME280;49105;46.046;10.760;2023-07-02T01:30:41;95044.16;;;19.57;69.56
63019;BME280;49105;46.046;10.760;2023-07-02T01:33:06;95047.78;;;19.49;69.51
63019;BME280;49105;46.046;10.760;2023-07-02T01:35:32;95053.75;;;19.43;69.78
63019;BME280;49105;46.046;10.760;2023-07-02T01:37:57;95048.19;;;19.36;70.16
63019;BME280;49105;46.046;10.760;2023-07-02T01:40:34;95048.66;;;19.25;70.83
63019;BME280;49105;46.046;10.760;2023-07-02T01:43:34;95052.84;;;19.23;71.00
63019;BME280;49105;46.046;10.760;2023-07-02T01:45:59;95052.94;;;19.26;70.62
63019;BME280;49105;46.046;10.760;2023-07-02T01:48:27;95052.47;;;19.24;70.59
63019;BME280;49105;46.046;10.760;2023-07-02T01:50:59;95057.44;;;19.22;70.21
63019;BME280;49105;46.046;10.760;2023-07-02T01:53:30;95055.53;;;19.23;70.47
63019;BME280;49105;46.046;10.760;2023-07-02T01:55:59;95057.19;;;19.27;70.22
63019;BME280;49105;46.046;10.760;2023-07-02T01:58:25;95057.53;;;19.26;70.00
63019;BME280;49105;46.046;10.760;2023-07-02T02:00:53;95053.25;;;19.25;70.19
63019;BME280;49105;46.046;10.760;2023-07-02T02:03:19;95054.03;;;19.25;70.00
63019;BME280;49105;46.046;10.760;2023-07-02T02:05:45;95052.06;;;19.22;70.14
63019;BME280;49105;46.046;10.760;2023-07-02T02:08:21;95049.44;;;19.10;70.31
63019;BME280;49105;46.046;10.760;2023-07-02T02:10:55;95044.28;;;19.05;70.58
63019;BME280;49105;46.046;10.760;2023-07-02T02:13:24;95055.47;;;19.07;70.78
63019;BME280;49105;46.046;10.760;2023-07-02T02:15:49;95060.47;;;19.08;70.62
63019;BME280;49105;46.046;10.760;2023-07-02T02:18:17;95052.97;;;19.14;70.35
63019;BME280;49105;46.046;10.760;2023-07-02T02:20:49;95055.31;;;19.16;70.26
63019;BME280;49105;46.046;10.760;2023-07-02T02:23:23;95056.44;;;19.15;70.00
63019;BME280;49105;46.046;10.760;2023-07-02T02:25:52;95059.81;;;19.12;70.00
63019;BME280;49105;46.046;10.760;2023-07-02T02:28:23;95056.75;;;19.13;70.00
63019;BME280;49105;46.046;10.760;2023-07-02T02:30:49;95052.63;;;19.16;69.79
63019;BME280;49105;46.046;10.760;2023-07-02T02:33:21;95053.75;;;19.15;69.90
63019;BME280;49105;46.046;10.760;2023-07-02T02:35:50;95054.63;;;19.19;69.61
63019;BME280;49105;46.046;10.760;2023-07-02T02:38:15;95058.03;;;19.03;70.00
63019;BME280;49105;46.046;10.760;2023-07-02T02:40:41;95060.63;;;19.00;70.10
63019;BME280;49105;46.046;10.760;2023-07-02T02:43:07;95054.81;;;18.98;70.13
63019;BME280;49105;46.046;10.760;2023-07-02T02:45:35;95054.81;;;18.98;70.09
63019;BME280;49105;46.046;10.760;2023-07-02T02:48:01;95055.25;;;19.00;69.92
63019;BME280;49105;46.046;10.760;2023-07-02T02:50:36;95055.59;;;18.98;69.94
63019;BME280;49105;46.046;10.760;2023-07-02T02:53:10;95059.44;;;18.85;70.00
63019;BME280;49105;46.046;10.760;2023-07-02T02:55:36;95060.88;;;18.82;69.82
63019;BME280;49105;46.046;10.760;2023-07-02T02:58:08;95063.13;;;18.68;69.95
63019;BME280;49105;46.046;10.760;2023-07-02T03:00:40;95071.38;;;18.63;70.35
63019;BME280;49105;46.046;10.760;2023-07-02T03:03:33;95074.94;;;18.67;70.31
63019;BME280;49105;46.046;10.760;2023-07-02T03:06:02;95080.56;;;18.74;70.32
63019;BME280;49105;46.046;10.760;2023-07-02T03:08:27;95083.78;;;18.68;70.30
63019;BME280;49105;46.046;10.760;2023-07-02T03:10:59;95090.06;;;18.72;70.30
63019;BME280;49105;46.046;10.760;2023-07-02T03:13:27;95078.09;;;18.81;70.03
63019;BME280;49105;46.046;10.760;2023-07-02T03:15:53;95081.44;;;18.91;70.16
63019;BME280;49105;46.046;10.760;2023-07-02T03:18:25;95095.72;;;18.95;69.84
63019;BME280;49105;46.046;10.760;2023-07-02T03:20:50;95078.84;;;18.94;70.02
63019;BME280;49105;46.046;10.760;2023-07-02T03:23:22;95089.13;;;18.92;69.92
63019;BME280;49105;46.046;10.760;2023-07-02T03:25:47;95090.91;;;18.88;70.01
63019;BME280;49105;46.046;10.760;2023-07-02T03:28:13;95101.59;;;18.72;70.08
63019;BME280;49105;46.046;10.760;2023-07-02T03:30:44;95087.34;;;18.59;70.80
63019;BME280;49105;46.046;10.760;2023-07-02T03:33:16;95090.38;;;18.58;70.90
63019;BME280;49105;46.046;10.760;2023-07-02T03:35:51;95099.84;;;18.68;70.74
63019;BME280;49105;46.046;10.760;2023-07-02T03:38:16;95102.78;;;18.75;70.58
63019;BME280;49105;46.046;10.760;2023-07-02T03:40:50;95093.53;;;18.84;70.16
63019;BME280;49105;46.046;10.760;2023-07-02T03:43:16;95101.31;;;18.90;69.89
63019;BME280;49105;46.046;10.760;2023-07-02T03:45:41;95104.44;;;18.92;70.13
63019;BME280;49105;46.046;10.760;2023-07-02T03:48:19;95103.41;;;18.96;69.96
63019;BME280;49105;46.046;10.760;2023-07-02T03:50:44;95106.31;;;19.03;69.79
63019;BME280;49105;46.046;10.760;2023-07-02T03:53:10;95097.34;;;19.12;69.81
63019;BME280;49105;46.046;10.760;2023-07-02T03:55:35;95100.13;;;19.15;69.61
63019;BME280;49105;46.046;10.760;2023-07-02T03:58:01;95097.56;;;19.19;69.50
63019;BME280;49105;46.046;10.760;2023-07-02T04:00:27;95099.47;;;19.18;69.44
63019;BME280;49105;46.046;10.760;2023-07-02T04:02:58;95098.75;;;19.21;69.49
63019;BME280;49105;46.046;10.760;2023-07-02T04:05:30;95103.19;;;19.14;69.78
63019;BME280;49105;46.046;10.760;2023-07-02T04:08:01;95102.81;;;19.15;69.68
63019;BME280;49105;46.046;10.760;2023-07-02T04:10:27;95103.03;;;19.22;69.43
63019;BME280;49105;46.046;10.760;2023-07-02T04:12:52;95115.53;;;19.30;69.17
63019;BME280;49105;46.046;10.760;2023-07-02T04:15:24;95113.94;;;19.29;69.36
63019;BME280;49105;46.046;10.760;2023-07-02T04:17:52;95106.03;;;19.21;69.41
63019;BME280;49105;46.046;10.760;2023-07-02T04:20:20;95114.69;;;19.14;69.63
63019;BME280;49105;46.046;10.760;2023-07-02T04:22:52;95128.88;;;19.15;69.82
63019;BME280;49105;46.046;10.760;2023-07-02T04:25:26;95118.78;;;19.24;69.75
63019;BME280;49105;46.046;10.760;2023-07-02T04:27:58;95118.22;;;19.30;69.19
63019;BME280;49105;46.046;10.760;2023-07-02T04:30:29;95122.44;;;19.31;69.39
63019;BME280;49105;46.046;10.760;2023-07-02T04:33:01;95127.56;;;19.37;69.09
63019;BME280;49105;46.046;10.760;2023-07-02T04:35:33;95122.34;;;19.28;69.49
63019;BME280;49105;46.046;10.760;2023-07-02T04:38:00;95132.88;;;19.21;69.67
63019;BME280;49105;46.046;10.760;2023-07-02T04:40:35;95128.72;;;19.23;69.71
63019;BME280;49105;46.046;10.760;2023-07-02T04:43:19;95124.47;;;19.34;69.58
63019;BME280;49105;46.046;10.760;2023-07-02T04:45:54;95128.34;;;19.37;69.79
63019;BME280;49105;46.046;10.760;2023-07-02T04:48:20;95136.22;;;19.58;69.98
63019;BME280;49105;46.046;10.760;2023-07-02T04:50:54;95128.72;;;19.92;69.75
63019;BME280;49105;46.046;10.760;2023-07-02T04:53:20;95122.84;;;20.18;69.27
63019;BME280;49105;46.046;10.760;2023-07-02T04:55:45;95125.28;;;20.39;68.90
63019;BME280;49105;46.046;10.760;2023-07-02T04:58:17;95126.94;;;20.59;68.77
63019;BME280;49105;46.046;10.760;2023-07-02T05:00:42;95126.66;;;20.80;68.17
63019;BME280;49105;46.046;10.760;2023-07-02T05:03:08;95132.50;;;21.01;67.53
63019;BME280;49105;46.046;10.760;2023-07-02T05:05:33;95132.38;;;21.14;66.73
63019;BME280;49105;46.046;10.760;2023-07-02T05:08:05;95129.56;;;21.26;66.16
63019;BME280;49105;46.046;10.760;2023-07-02T05:10:36;95127.38;;;21.31;65.81
63019;BME280;49105;46.046;10.760;2023-07-02T05:13:02;95134.91;;;21.42;65.46
63019;BME280;49105;46.046;10.760;2023-07-02T05:15:37;95129.25;;;21.47;65.41
63019;BME280;49105;46.046;10.760;2023-07-02T05:18:02;95139.31;;;21.50;65.34
63019;BME280;49105;46.046;10.760;2023-07-02T05:20:28;95139.38;;;21.53;65.26
63019;BME280;49105;46.046;10.760;2023-07-02T05:22:59;95134.25;;;21.68;64.92
63019;BME280;49105;46.046;10.760;2023-07-02T05:25:34;95136.63;;;21.69;64.56
63019;BME280;49105;46.046;10.760;2023-07-02T05:28:00;95127.63;;;21.62;64.65
63019;BME280;49105;46.046;10.760;2023-07-02T05:30:29;95127.78;;;21.69;64.46
63019;BME280;49105;46.046;10.760;2023-07-02T05:32:54;95129.25;;;21.66;64.49
63019;BME280;49105;46.046;10.760;2023-07-02T05:35:20;95124.72;;;21.51;64.50
63019;BME280;49105;46.046;10.760;2023-07-02T05:37:45;95136.53;;;21.46;64.60
63019;BME280;49105;46.046;10.760;2023-07-02T05:40:14;95122.66;;;21.44;64.64
63019;BME280;49105;46.046;10.760;2023-07-02T05:42:39;95126.28;;;21.52;64.34
63019;BME280;49105;46.046;10.760;2023-07-02T05:45:08;95126.41;;;21.59;64.22
63019;BME280;49105;46.046;10.760;2023-07-02T05:47:34;95134.63;;;21.66;64.03
63019;BME280;49105;46.046;10.760;2023-07-02T05:50:02;95127.41;;;21.70;63.64
63019;BME280;49105;46.046;10.760;2023-07-02T05:52:28;95129.25;;;21.66;63.69
63019;BME280;49105;46.046;10.760;2023-07-02T05:54:53;95128.75;;;21.61;63.26
63019;BME280;49105;46.046;10.760;2023-07-02T05:57:19;95129.94;;;21.63;63.36
63019;BME280;49105;46.046;10.760;2023-07-02T05:59:44;95134.19;;;21.64;63.02
63019;BME280;49105;46.046;10.760;2023-07-02T06:02:10;95131.78;;;21.59;63.12
63019;BME280;49105;46.046;10.760;2023-07-02T06:04:35;95127.63;;;21.62;63.05
63019;BME280;49105;46.046;10.760;2023-07-02T06:07:10;95125.84;;;21.69;63.27
63019;BME280;49105;46.046;10.760;2023-07-02T06:09:35;95128.19;;;21.71;63.16
63019;BME280;49105;46.046;10.760;2023-07-02T06:12:01;95134.63;;;21.86;62.91
63019;BME280;49105;46.046;10.760;2023-07-02T06:14:27;95134.53;;;22.01;62.48
63019;BME280;49105;46.046;10.760;2023-07-02T06:17:05;95132.63;;;22.02;62.37
63019;BME280;49105;46.046;10.760;2023-07-02T06:19:51;95130.31;;;22.04;62.04
63019;BME280;49105;46.046;10.760;2023-07-02T06:22:25;95128.16;;;21.90;62.28
63019;BME280;49105;46.046;10.760;2023-07-02T06:24:51;95126.00;;;21.99;62.47
63019;BME280;49105;46.046;10.760;2023-07-02T06:27:17;95127.69;;;22.08;62.30
63019;BME280;49105;46.046;10.760;2023-07-02T06:29:42;95124.38;;;22.14;62.23
63019;BME280;49105;46.046;10.760;2023-07-02T06:32:08;95115.28;;;22.22;62.16
63019;BME280;49105;46.046;10.760;2023-07-02T06:34:42;95125.75;;;22.27;61.72
63019;BME280;49105;46.046;10.760;2023-07-02T06:37:07;95123.66;;;22.17;61.89
63019;BME280;49105;46.046;10.760;2023-07-02T06:39:42;95133.59;;;22.13;62.08
63019;BME280;49105;46.046;10.760;2023-07-02T06:42:17;95129.09;;;22.21;61.99
63019;BME280;49105;46.046;10.760;2023-07-02T06:44:48;95121.00;;;22.21;61.90
63019;BME280;49105;46.046;10.760;2023-07-02T06:47:14;95121.22;;;22.32;61.80
63019;BME280;49105;46.046;10.760;2023-07-02T06:49:52;95115.25;;;22.45;61.64
63019;BME280;49105;46.046;10.760;2023-07-02T06:52:18;95120.16;;;22.63;61.16
63019;BME280;49105;46.046;10.760;2023-07-02T06:54:49;95123.03;;;22.73;60.89
63019;BME280;49105;46.046;10.760;2023-07-02T06:57:22;95123.13;;;22.81;60.65
63019;BME280;49105;46.046;10.760;2023-07-02T06:59:51;95119.19;;;22.74;60.56
63019;BME280;49105;46.046;10.760;2023-07-02T07:02:16;95118.50;;;22.81;60.21
63019;BME280;49105;46.046;10.760;2023-07-02T07:04:42;95120.94;;;22.90;59.46
63019;BME280;49105;46.046;10.760;2023-07-02T07:07:14;95120.31;;;22.96;59.47
63019;BME280;49105;46.046;10.760;2023-07-02T07:09:40;95115.88;;;23.11;59.48
63019;BME280;49105;46.046;10.760;2023-07-02T07:12:06;95117.13;;;23.17;59.41
63019;BME280;49105;46.046;10.760;2023-07-02T07:14:31;95114.50;;;23.24;59.11
63019;BME280;49105;46.046;10.760;2023-07-02T07:16:57;95116.06;;;23.25;59.15
63019;BME280;49105;46.046;10.760;2023-07-02T07:19:31;95117.78;;;23.11;59.19
63019;BME280;49105;46.046;10.760;2023-07-02T07:21:57;95112.63;;;22.98;59.40
63019;BME280;49105;46.046;10.760;2023-07-02T07:24:34;95118.00;;;22.98;59.46
63019;BME280;49105;46.046;10.760;2023-07-02T07:27:00;95116.59;;;23.08;59.18
63019;BME280;49105;46.046;10.760;2023-07-02T07:29:25;95109.66;;;23.07;59.13
63019;BME280;49105;46.046;10.760;2023-07-02T07:31:51;95105.03;;;23.08;59.08
63019;BME280;49105;46.046;10.760;2023-07-02T07:34:26;95111.19;;;23.08;59.18
63019;BME280;49105;46.046;10.760;2023-07-02T07:36:58;95102.88;;;23.20;59.19
63019;BME280;49105;46.046;10.760;2023-07-02T07:39:30;95104.28;;;23.41;58.83
63019;BME280;49105;46.046;10.760;2023-07-02T07:42:01;95106.25;;;23.44;58.58
63019;BME280;49105;46.046;10.760;2023-07-02T07:44:36;95103.50;;;23.40;58.75
63019;BME280;49105;46.046;10.760;2023-07-02T07:47:01;95100.81;;;23.40;58.68
63019;BME280;49105;46.046;10.760;2023-07-02T07:49:30;95100.81;;;23.40;58.61
63019;BME280;49105;46.046;10.760;2023-07-02T07:55:18;95096.75;;;23.57;58.37
63019;BME280;49105;46.046;10.760;2023-07-02T07:57:47;95092.38;;;23.75;58.07
63019;BME280;49105;46.046;10.760;2023-07-02T08:00:18;95094.88;;;23.95;57.93
63019;BME280;49105;46.046;10.760;2023-07-02T08:02:46;95093.47;;;24.08;57.79
63019;BME280;49105;46.046;10.760;2023-07-02T08:05:14;95091.88;;;24.04;57.40
63019;BME280;49105;46.046;10.760;2023-07-02T08:07:52;95094.97;;;24.06;57.45
63019;BME280;49105;46.046;10.760;2023-07-02T08:10:25;95102.31;;;24.05;57.59
63019;BME280;49105;46.046;10.760;2023-07-02T08:12:53;95093.47;;;24.08;57.26
63019;BME280;49105;46.046;10.760;2023-07-02T08:15:21;95087.69;;;24.10;57.51
63019;BME280;49105;46.046;10.760;2023-07-02T08:17:56;95092.41;;;24.23;57.46
63019;BME280;49105;46.046;10.760;2023-07-02T08:20:29;95091.31;;;24.28;57.24
63019;BME280;49105;46.046;10.760;2023-07-02T08:22:55;95090.59;;;24.35;57.39
63019;BME280;49105;46.046;10.760;2023-07-02T08:25:24;95082.56;;;24.42;57.24
63019;BME280;49105;46.046;10.760;2023-07-02T08:27:58;95088.50;;;24.58;57.26
63019;BME280;49105;46.046;10.760;2023-07-02T08:30:26;95083.16;;;24.72;56.97
63019;BME280;49105;46.046;10.760;2023-07-02T08:32:52;95089.03;;;24.85;56.60
63019;BME280;49105;46.046;10.760;2023-07-02T08:35:19;95082.94;;;24.95;56.45
63019;BME280;49105;46.046;10.760;2023-07-02T08:37:45;95073.66;;;25.00;56.56
63019;BME280;49105;46.046;10.760;2023-07-02T08:40:20;95076.00;;;25.05;56.53
63019;BME280;49105;46.046;10.760;2023-07-02T08:42:49;95076.00;;;25.05;56.27
63019;BME280;49105;46.046;10.760;2023-07-02T08:45:22;95074.53;;;25.11;55.93
63019;BME280;49105;46.046;10.760;2023-07-02T08:47:49;95072.19;;;25.10;55.65
63019;BME280;49105;46.046;10.760;2023-07-02T08:50:22;95069.13;;;25.11;55.50
63019;BME280;49105;46.046;10.760;2023-07-02T08:52:49;95077.97;;;25.08;54.88
63019;BME280;49105;46.046;10.760;2023-07-02T08:55:18;95077.25;;;25.11;54.46
63019;BME280;49105;46.046;10.760;2023-07-02T08:57:56;95072.25;;;25.17;54.98
63019;BME280;49105;46.046;10.760;2023-07-02T09:00:31;95076.91;;;25.23;54.62
63019;BME280;49105;46.046;10.760;2023-07-02T09:03:14;95074.22;;;25.27;54.38
63019;BME280;49105;46.046;10.760;2023-07-02T09:05:52;95074.63;;;25.29;54.18
63019;BME280;49105;46.046;10.760;2023-07-02T09:08:27;95083.91;;;25.32;54.42
63019;BME280;49105;46.046;10.760;2023-07-02T09:10:53;95080.84;;;25.37;54.30
63019;BME280;49105;46.046;10.760;2023-07-02T09:13:19;95080.13;;;25.47;54.34
63019;BME280;49105;46.046;10.760;2023-07-02T09:15:50;95080.13;;;25.54;54.12
63019;BME280;49105;46.046;10.760;2023-07-02T09:18:25;95071.63;;;25.56;53.63
63019;BME280;49105;46.046;10.760;2023-07-02T09:20:56;95078.56;;;25.53;53.65
63019;BME280;49105;46.046;10.760;2023-07-02T09:23:35;95070.81;;;25.55;53.82
63019;BME280;49105;46.046;10.760;2023-07-02T09:26:03;95077.44;;;25.61;53.59
63019;BME280;49105;46.046;10.760;2023-07-02T09:31:51;95079.41;;;25.64;53.02
63019;BME280;49105;46.046;10.760;2023-07-02T09:34:20;95072.41;;;25.67;53.18
63019;BME280;49105;46.046;10.760;2023-07-02T09:36:51;95080.19;;;25.68;53.15
63019;BME280;49105;46.046;10.760;2023-07-02T09:39:24;95078.69;;;25.78;53.19
63019;BME280;49105;46.046;10.760;2023-07-02T09:41:50;95082.56;;;25.84;52.89
63019;BME280;49105;46.046;10.760;2023-07-02T09:44:17;95079.47;;;25.89;52.80
63019;BME280;49105;46.046;10.760;2023-07-02T09:46:51;95077.16;;;25.95;53.05
63019;BME280;49105;46.046;10.760;2023-07-02T09:49:20;95080.28;;;25.97;52.58
63019;BME280;49105;46.046;10.760;2023-07-02T09:51:47;95085.31;;;26.02;52.67
63019;BME280;49105;46.046;10.760;2023-07-02T09:54:19;95088.03;;;26.09;52.71
63019;BME280;49105;46.046;10.760;2023-07-02T09:56:48;95083.41;;;26.13;52.58
63019;BME280;49105;46.046;10.760;2023-07-02T09:59:15;95079.91;;;26.23;52.20
63019;BME280;49105;46.046;10.760;2023-07-02T10:01:47;95080.28;;;26.29;52.17
63019;BME280;49105;46.046;10.760;2023-07-02T10:04:22;95085.34;;;26.34;52.09
63019;BME280;49105;46.046;10.760;2023-07-02T10:06:55;95080.31;;;26.40;51.62
63019;BME280;49105;46.046;10.760;2023-07-02T10:09:42;95074.50;;;26.34;51.14
63019;BME280;49105;46.046;10.760;2023-07-02T10:12:18;95082.22;;;26.29;50.65
63019;BME280;49105;46.046;10.760;2023-07-02T10:14:45;95074.88;;;26.36;50.99
63019;BME280;49105;46.046;10.760;2023-07-02T10:17:34;95072.94;;;26.44;50.57
63019;BME280;49105;46.046;10.760;2023-07-02T10:20:01;95074.91;;;26.51;51.06
63019;BME280;49105;46.046;10.760;2023-07-02T10:22:44;95074.91;;;26.54;50.72
63019;BME280;49105;46.046;10.760;2023-07-02T10:25:09;95069.44;;;26.65;51.09
63019;BME280;49105;46.046;10.760;2023-07-02T10:27:45;95068.28;;;26.77;50.37
63019;BME280;49105;46.046;10.760;2023-07-02T10:30:11;95065.16;;;26.89;50.05
63019;BME280;49105;46.046;10.760;2023-07-02T10:32:42;95060.09;;;26.94;49.40
63019;BME280;49105;46.046;10.760;2023-07-02T10:35:20;95065.16;;;26.89;49.22
63019;BME280;49105;46.046;10.760;2023-07-02T10:37:45;95058.94;;;26.88;49.04
63019;BME280;49105;46.046;10.760;2023-07-02T10:40:17;95059.31;;;26.94;49.07
63019;BME280;49105;46.046;10.760;2023-07-02T10:42:47;95057.34;;;27.16;49.11
63019;BME280;49105;46.046;10.760;2023-07-02T10:45:16;95058.47;;;27.26;49.23
63019;BME280;49105;46.046;10.760;2023-07-02T10:47:42;95063.50;;;27.31;48.68
63019;BME280;49105;46.046;10.760;2023-07-02T10:50:18;95061.63;;;27.17;48.80
63019;BME280;49105;46.046;10.760;2023-07-02T10:52:45;95062.38;;;27.17;48.93
63019;BME280;49105;46.046;10.760;2023-07-02T10:55:24;95055.00;;;27.21;48.57
63019;BME280;49105;46.046;10.760;2023-07-02T10:58:04;95049.97;;;27.09;48.76
63019;BME280;49105;46.046;10.760;2023-07-02T11:00:49;95054.66;;;27.02;48.47
63019;BME280;49105;46.046;10.760;2023-07-02T11:06:55;95058.59;;;26.68;48.85
63019;BME280;49105;46.046;10.760;2023-07-02T11:09:21;95054.69;;;26.87;49.10
63019;BME280;49105;46.046;10.760;2023-07-02T11:11:51;95056.56;;;27.08;49.05
63019;BME280;49105;46.046;10.760;2023-07-02T11:14:34;95049.94;;;27.24;48.38
63019;BME280;49105;46.046;10.760;2023-07-02T11:17:04;95050.69;;;27.31;48.67
63019;BME280;49105;46.046;10.760;2023-07-02T11:19:34;95051.50;;;27.25;47.98
63019;BME280;49105;46.046;10.760;2023-07-02T11:22:00;95051.50;;;27.21;47.98
63019;BME280;49105;46.046;10.760;2023-07-02T11:24:36;95054.16;;;27.32;48.29
63019;BME280;49105;46.046;10.760;2023-07-02T11:27:08;95055.34;;;27.31;48.59
63019;BME280;49105;46.046;10.760;2023-07-02T11:29:34;95049.56;;;27.29;48.79
63019;BME280;49105;46.046;10.760;2023-07-02T11:32:07;95052.22;;;27.36;48.75
63019;BME280;49105;46.046;10.760;2023-07-02T11:34:40;95048.28;;;27.44;48.37
63019;BME280;49105;46.046;10.760;2023-07-02T11:37:09;95056.84;;;27.42;48.43
63019;BME280;49105;46.046;10.760;2023-07-02T11:39:34;95055.66;;;27.47;48.77
63019;BME280;49105;46.046;10.760;2023-07-02T11:42:00;95051.38;;;27.53;48.71
63019;BME280;49105;46.046;10.760;2023-07-02T11:44:31;95056.81;;;27.53;47.92
63019;BME280;49105;46.046;10.760;2023-07-02T11:47:03;95052.94;;;27.47;47.80
63019;BME280;49105;46.046;10.760;2023-07-02T11:49:38;95063.78;;;27.54;47.58
63019;BME280;49105;46.046;10.760;2023-07-02T11:52:03;95052.19;;;27.43;47.69
63019;BME280;49105;46.046;10.760;2023-07-02T11:54:35;95052.22;;;27.36;47.53
63019;BME280;49105;46.046;10.760;2023-07-02T11:57:00;95042.91;;;27.40;47.93
63019;BME280;49105;46.046;10.760;2023-07-02T11:59:35;95040.44;;;27.64;47.57
63019;BME280;49105;46.046;10.760;2023-07-02T12:02:01;95040.84;;;27.62;47.17
63019;BME280;49105;46.046;10.760;2023-07-02T12:04:27;95049.78;;;27.63;47.01
63019;BME280;49105;46.046;10.760;2023-07-02T12:06:53;95047.78;;;27.70;47.09
63019;BME280;49105;46.046;10.760;2023-07-02T12:09:28;95046.59;;;27.71;47.22
63019;BME280;49105;46.046;10.760;2023-07-02T12:11:53;95047.06;;;27.63;47.24
63019;BME280;49105;46.046;10.760;2023-07-02T12:14:19;95052.94;;;27.51;47.57
63019;BME280;49105;46.046;10.760;2023-07-02T12:16:50;95053.34;;;27.45;47.70
63019;BME280;49105;46.046;10.760;2023-07-02T12:19:16;95058.38;;;27.47;47.66
63019;BME280;49105;46.046;10.760;2023-07-02T12:21:50;95053.78;;;27.37;47.73
63019;BME280;49105;46.046;10.760;2023-07-02T12:24:25;95048.72;;;27.39;47.59
63019;BME280;49105;46.046;10.760;2023-07-02T12:26:51;95047.97;;;27.28;47.62
63019;BME280;49105;46.046;10.760;2023-07-02T12:29:25;95053.03;;;27.26;47.89
63019;BME280;49105;46.046;10.760;2023-07-02T12:31:50;95054.16;;;27.39;47.72
63019;BME280;49105;46.046;10.760;2023-07-02T12:34:16;95044.38;;;27.56;47.14
63019;BME280;49105;46.046;10.760;2023-07-02T12:36:48;95049.81;;;27.52;47.24
63019;BME280;49105;46.046;10.760;2023-07-02T12:39:47;95050.63;;;27.49;47.40
63019;BME280;49105;46.046;10.760;2023-07-02T12:42:12;95052.22;;;27.36;47.54
63019;BME280;49105;46.046;10.760;2023-07-02T12:44:47;95054.22;;;27.25;47.96
63019;BME280;49105;46.046;10.760;2023-07-02T12:47:13;95047.63;;;27.18;47.99
63019;BME280;49105;46.046;10.760;2023-07-02T12:49:38;95055.03;;;27.14;48.20
63019;BME280;49105;46.046;10.760;2023-07-02T12:52:04;95051.16;;;27.08;48.48
63019;BME280;49105;46.046;10.760;2023-07-02T12:54:29;95055.41;;;27.09;48.56
63019;BME280;49105;46.046;10.760;2023-07-02T12:57:04;95059.66;;;27.21;48.35
63019;BME280;49105;46.046;10.760;2023-07-02T12:59:30;95058.84;;;27.28;48.18
63019;BME280;49105;46.046;10.760;2023-07-02T13:01:55;95057.72;;;27.18;48.00
63019;BME280;49105;46.046;10.760;2023-07-02T13:04:21;95064.31;;;27.06;48.49
63019;BME280;49105;46.046;10.760;2023-07-02T13:06:46;95057.78;;;26.96;48.69
63019;BME280;49105;46.046;10.760;2023-07-02T13:09:12;95064.75;;;26.94;48.85
63019;BME280;49105;46.046;10.760;2023-07-02T13:11:43;95067.88;;;26.85;48.91
63019;BME280;49105;46.046;10.760;2023-07-02T13:14:15;95068.66;;;26.82;49.10
63019;BME280;49105;46.046;10.760;2023-07-02T13:16:42;95072.94;;;26.80;49.39
63019;BME280;49105;46.046;10.760;2023-07-02T13:19:14;95067.09;;;26.78;49.29